createdAt,value
2018-08-06T00:01:58.652Z,99.90
2018-08-06T00:04:34.368Z,99.90
2018-08-06T00:07:10.248Z,99.90
2018-08-06T00:09:46.087Z,99.90
2018-08-06T00:12:21.477Z,99.90
2018-08-06T00:14:57.648Z,99.90
2018-08-06T00:17:32.788Z,99.90
2018-08-06T00:20:10.123Z,99.90
2018-08-06T00:22:45.628Z,99.90
2018-08-06T00:25:21.314Z,99.90
2018-08-06T00:27:56.792Z,99.90
2018-08-06T00:30:32.501Z,99.90
2018-08-06T00:33:08.001Z,99.90
2018-08-06T00:35:43.644Z,99.90
2018-08-06T00:38:19.088Z,99.90
2018-08-06T00:40:54.704Z,99.90
2018-08-06T00:43:29.945Z,99.90
2018-08-06T00:46:05.998Z,99.90
2018-08-06T00:48:41.508Z,99.90
2018-08-06T00:51:17.382Z,99.90
2018-08-06T00:53:52.765Z,99.90
2018-08-06T00:56:29.020Z,99.90
2018-08-06T00:59:04.627Z,99.90
2018-08-06T01:01:40.303Z,99.90
2018-08-06T01:04:15.866Z,99.90
2018-08-06T01:06:51.603Z,99.90
2018-08-06T01:09:27.664Z,99.90
2018-08-06T01:12:03.649Z,99.90
2018-08-06T01:14:39.108Z,99.90
2018-08-06T01:17:14.926Z,99.90
2018-08-06T01:19:50.479Z,99.90
2018-08-06T01:22:26.123Z,99.90
2018-08-06T01:25:01.449Z,99.90
2018-08-06T01:27:37.634Z,99.90
2018-08-06T01:30:14.788Z,99.90
2018-08-06T01:32:50.461Z,99.90
2018-08-06T01:35:26.010Z,99.90
2018-08-06T01:38:01.856Z,99.90
2018-08-06T01:40:37.120Z,99.90
2018-08-06T01:43:12.650Z,99.90
2018-08-06T01:45:48.167Z,99.90
2018-08-06T01:50:58.887Z,99.90
2018-08-06T01:53:34.636Z,99.90
2018-08-06T01:56:10.165Z,99.90
2018-08-06T01:58:46.180Z,99.90
2018-08-06T02:01:21.526Z,99.90
2018-08-06T02:03:57.245Z,99.90
2018-08-06T02:06:33.675Z,99.90
2018-08-06T02:11:45.012Z,99.90
2018-08-06T02:14:21.060Z,99.90
2018-08-06T02:16:56.360Z,99.90
2018-08-06T02:19:31.956Z,99.90
2018-08-06T02:22:07.448Z,99.90
2018-08-06T02:24:43.127Z,99.90
2018-08-06T02:27:18.340Z,99.90
2018-08-06T02:29:54.249Z,99.90
2018-08-06T02:32:29.620Z,99.90
2018-08-06T02:35:06.401Z,99.90
2018-08-06T02:37:42.508Z,99.90
2018-08-06T02:40:21.772Z,99.90
2018-08-06T02:42:57.057Z,99.90
2018-08-06T02:45:32.758Z,99.90
2018-08-06T02:48:07.970Z,99.90
2018-08-06T02:50:43.520Z,99.90
2018-08-06T02:53:21.804Z,99.90
2018-08-06T02:55:58.149Z,99.90
2018-08-06T02:58:33.564Z,99.90
2018-08-06T03:01:09.098Z,99.90
2018-08-06T03:03:44.656Z,99.90
2018-08-06T03:06:20.613Z,99.90
2018-08-06T03:08:56.112Z,99.90
2018-08-06T03:11:32.068Z,99.90
2018-08-06T03:14:07.300Z,99.90
2018-08-06T03:16:43.012Z,99.90
2018-08-06T03:19:18.436Z,99.90
2018-08-06T03:21:54.084Z,99.90
2018-08-06T03:24:29.317Z,99.90
2018-08-06T03:27:05.110Z,99.90
2018-08-06T03:29:40.643Z,99.90
2018-08-06T03:34:51.357Z,99.90
2018-08-06T03:37:26.948Z,99.90
2018-08-06T03:40:02.818Z,99.90
2018-08-06T03:42:38.696Z,99.90
2018-08-06T03:45:14.360Z,99.90
2018-08-06T03:50:25.308Z,99.90
2018-08-06T03:53:01.001Z,99.90
2018-08-06T03:55:36.242Z,99.90
2018-08-06T03:58:11.974Z,99.90
2018-08-06T04:00:47.489Z,99.90
2018-08-06T04:03:23.273Z,99.90
2018-08-06T04:08:34.164Z,99.90
2018-08-06T04:11:10.110Z,99.90
2018-08-06T04:13:46.293Z,99.90
2018-08-06T04:16:21.572Z,99.90
2018-08-06T04:18:57.325Z,99.90
2018-08-06T04:21:32.620Z,99.90
2018-08-06T04:24:08.897Z,99.90
2018-08-06T04:26:44.321Z,99.90
2018-08-06T04:31:55.372Z,99.90
2018-08-06T04:34:31.086Z,99.90
2018-08-06T04:37:06.584Z,99.90
2018-08-06T04:39:42.276Z,99.90
2018-08-06T04:42:17.720Z,99.90
2018-08-06T04:44:53.364Z,99.90
2018-08-06T04:47:28.869Z,99.90
2018-08-06T04:50:05.486Z,99.90
2018-08-06T04:52:40.653Z,99.90
2018-08-06T04:55:16.793Z,99.90
2018-08-06T04:57:52.357Z,99.90
2018-08-06T05:00:28.192Z,99.90
2018-08-06T05:05:39.293Z,99.90
2018-08-06T05:08:14.757Z,99.90
2018-08-06T05:10:50.796Z,99.90
2018-08-06T05:13:26.553Z,99.90
2018-08-06T05:16:02.212Z,99.90
2018-08-06T05:18:37.673Z,99.90
2018-08-06T05:21:13.414Z,99.90
2018-08-06T05:23:58.441Z,99.90
2018-08-06T05:26:34.013Z,99.90
2018-08-06T05:29:09.292Z,99.90
2018-08-06T05:31:45.012Z,99.90
2018-08-06T05:34:20.481Z,99.90
2018-08-06T05:36:57.229Z,99.90
2018-08-06T05:39:32.832Z,99.90
2018-08-06T05:42:08.542Z,99.90
2018-08-06T05:44:44.178Z,99.90
2018-08-06T05:47:19.757Z,99.90
2018-08-06T05:49:54.455Z,99.90
2018-08-06T05:52:30.119Z,99.90
2018-08-06T05:55:05.881Z,99.90
2018-08-06T05:57:41.800Z,99.90
2018-08-06T06:00:18.202Z,99.90
2018-08-06T06:02:53.242Z,99.90
2018-08-06T06:05:27.944Z,99.90
2018-08-06T06:08:02.884Z,99.90
2018-08-06T06:10:37.597Z,99.90
2018-08-06T06:13:13.460Z,99.90
2018-08-06T06:15:49.148Z,99.90
2018-08-06T06:18:24.184Z,99.90
2018-08-06T06:20:58.886Z,99.90
2018-08-06T06:23:34.329Z,99.90
2018-08-06T06:26:09.916Z,99.90
2018-08-06T06:28:45.282Z,99.90
2018-08-06T06:31:22.565Z,99.90
2018-08-06T06:33:58.291Z,99.90
2018-08-06T06:36:34.044Z,99.90
2018-08-06T06:39:11.496Z,99.90
2018-08-06T06:41:47.079Z,99.90
2018-08-06T06:44:22.533Z,99.90
2018-08-06T06:46:58.548Z,99.90
2018-08-06T06:49:34.041Z,99.90
2018-08-06T06:52:08.767Z,99.90
2018-08-06T06:54:43.488Z,99.90
2018-08-06T06:57:18.407Z,99.90
2018-08-06T06:59:53.360Z,99.90
2018-08-06T07:02:28.621Z,99.90
2018-08-06T07:05:03.388Z,99.90
2018-08-06T07:07:38.445Z,99.90
2018-08-06T07:10:13.636Z,99.90
2018-08-06T07:12:48.521Z,99.90
2018-08-06T07:15:23.454Z,99.90
2018-08-06T07:18:00.390Z,99.90
2018-08-06T07:20:35.904Z,99.90
2018-08-06T07:23:11.538Z,99.90
2018-08-06T07:25:46.377Z,99.90
2018-08-06T07:28:21.112Z,99.90
2018-08-06T07:30:55.728Z,99.90
2018-08-06T07:33:30.875Z,99.90
2018-08-06T07:36:05.492Z,99.90
2018-08-06T07:38:40.832Z,99.90
2018-08-06T07:48:59.190Z,99.90
2018-08-06T07:51:33.990Z,99.90
2018-08-06T07:54:08.879Z,99.90
2018-08-06T07:56:44.363Z,99.90
2018-08-06T07:59:20.264Z,99.90
2018-08-06T08:01:55.705Z,99.90
2018-08-06T08:04:31.768Z,99.90
2018-08-06T08:07:07.136Z,99.90
2018-08-06T08:09:42.654Z,99.90
2018-08-06T08:12:17.315Z,99.90
2018-08-06T08:14:53.033Z,99.90
2018-08-06T08:17:27.707Z,99.90
2018-08-06T08:20:03.218Z,99.90
2018-08-06T08:22:39.385Z,99.90
2018-08-06T08:25:16.892Z,99.90
2018-08-06T08:27:52.576Z,99.90
2018-08-06T08:30:28.282Z,99.90
2018-08-06T08:35:40.076Z,99.90
2018-08-06T08:38:15.577Z,99.90
2018-08-06T08:40:51.088Z,99.90
2018-08-06T08:43:26.439Z,99.90
2018-08-06T08:46:01.906Z,99.90
2018-08-06T08:48:37.215Z,99.90
2018-08-06T08:51:12.855Z,99.90
2018-08-06T08:53:48.864Z,99.90
2018-08-06T08:56:24.378Z,99.90
2018-08-06T08:58:59.791Z,99.90
2018-08-06T09:01:35.310Z,99.90
2018-08-06T09:04:10.897Z,99.90
2018-08-06T09:06:46.252Z,99.90
2018-08-06T09:09:22.727Z,99.90
2018-08-06T09:11:58.371Z,99.90
2018-08-06T09:14:33.653Z,99.90
2018-08-06T09:17:09.058Z,99.90
2018-08-06T09:19:44.425Z,99.90
2018-08-06T09:22:20.374Z,99.90
2018-08-06T09:24:55.616Z,99.90
2018-08-06T09:27:31.124Z,99.90
2018-08-06T09:30:11.450Z,99.90
2018-08-06T09:32:47.952Z,99.90
2018-08-06T09:35:23.291Z,99.90
2018-08-06T09:37:58.952Z,99.90
2018-08-06T09:40:34.489Z,99.90
2018-08-06T09:43:10.148Z,99.90
2018-08-06T09:45:45.433Z,99.90
2018-08-06T09:48:20.859Z,99.90
2018-08-06T09:50:56.060Z,99.90
2018-08-06T09:53:31.627Z,99.90
2018-08-06T09:56:07.108Z,99.90
2018-08-06T09:58:42.816Z,99.90
2018-08-06T10:01:23.942Z,99.90
2018-08-06T10:03:59.553Z,99.90
2018-08-06T10:06:35.088Z,99.90
2018-08-06T10:09:11.362Z,99.90
2018-08-06T10:11:46.592Z,99.90
2018-08-06T10:14:22.462Z,99.90
2018-08-06T10:16:57.944Z,99.90
2018-08-06T10:19:33.762Z,99.90
2018-08-06T10:22:09.240Z,99.90
2018-08-06T10:24:44.924Z,99.90
2018-08-06T10:27:20.211Z,99.90
2018-08-06T10:29:55.945Z,99.90
2018-08-06T10:32:31.257Z,99.90
2018-08-06T10:35:07.964Z,99.90
2018-08-06T10:37:43.492Z,99.90
2018-08-06T10:40:21.439Z,99.90
2018-08-06T10:42:56.927Z,99.90
2018-08-06T10:45:32.414Z,99.90
2018-08-06T10:48:07.944Z,99.90
2018-08-06T10:50:43.411Z,99.90
2018-08-06T10:53:18.880Z,99.90
2018-08-06T10:55:54.546Z,99.90
2018-08-06T10:58:29.800Z,99.90
2018-08-06T11:01:05.289Z,99.90
2018-08-06T11:03:40.689Z,99.90
2018-08-06T11:06:16.394Z,99.90
2018-08-06T11:08:51.776Z,99.90
2018-08-06T11:11:27.676Z,99.90
2018-08-06T11:14:03.117Z,99.90
2018-08-06T11:16:38.708Z,99.90
2018-08-06T11:19:14.829Z,99.90
2018-08-06T11:21:50.526Z,99.90
2018-08-06T11:24:25.712Z,99.90
2018-08-06T11:27:01.273Z,99.90
2018-08-06T11:29:36.651Z,99.90
2018-08-06T11:32:12.362Z,99.90
2018-08-06T11:34:47.848Z,99.90
2018-08-06T11:37:23.560Z,99.90
2018-08-06T11:39:58.952Z,99.90
2018-08-06T11:42:34.565Z,99.90
2018-08-06T11:45:14.906Z,99.90
2018-08-06T11:47:50.572Z,99.90
2018-08-06T11:50:25.990Z,99.90
2018-08-06T11:53:01.764Z,99.90
2018-08-06T11:55:37.226Z,99.90
2018-08-06T11:58:12.881Z,99.90
2018-08-06T12:00:48.136Z,99.90
2018-08-06T12:03:23.659Z,99.90
2018-08-06T12:05:59.114Z,99.90
2018-08-06T12:08:34.645Z,99.90
2018-08-06T12:11:09.915Z,99.90
2018-08-06T12:13:45.481Z,99.90
2018-08-06T12:16:20.916Z,99.90
2018-08-06T12:18:56.525Z,99.90
2018-08-06T12:21:32.124Z,99.90
2018-08-06T12:24:07.618Z,99.90
2018-08-06T12:26:43.000Z,99.90
2018-08-06T12:29:18.612Z,99.90
2018-08-06T12:31:53.997Z,99.90
2018-08-06T12:34:29.720Z,99.90
2018-08-06T12:37:04.964Z,99.90
2018-08-06T12:39:40.597Z,99.90
2018-08-06T12:42:15.926Z,98.60
2018-08-06T12:44:51.486Z,98.10
2018-08-06T12:47:26.634Z,97.80
2018-08-06T12:50:02.280Z,98.30
2018-08-06T12:52:38.856Z,98.60
2018-08-06T12:55:15.627Z,98.70
2018-08-06T12:57:50.823Z,97.80
2018-08-06T13:00:27.539Z,96.70
2018-08-06T13:03:02.985Z,97.60
2018-08-06T13:05:38.486Z,97.20
2018-08-06T13:08:13.960Z,96.10
2018-08-06T13:10:49.529Z,96.80
2018-08-06T13:13:24.889Z,97.40
2018-08-06T13:16:00.415Z,97.20
2018-08-06T13:18:35.609Z,97.30
2018-08-06T13:21:11.315Z,96.50
2018-08-06T13:23:46.920Z,96.60
2018-08-06T13:26:22.612Z,96.70
2018-08-06T13:28:58.117Z,96.80
2018-08-06T13:31:33.641Z,95.80
2018-08-06T13:34:09.114Z,95.30
2018-08-06T13:36:44.597Z,94.90
2018-08-06T13:39:20.013Z,95.30
2018-08-06T13:41:55.518Z,94.70
2018-08-06T13:44:31.088Z,95.20
2018-08-06T13:47:06.473Z,95.30
2018-08-06T13:49:41.850Z,94.90
2018-08-06T13:52:17.364Z,94.90
2018-08-06T13:54:52.796Z,94.90
2018-08-06T13:57:28.336Z,94.80
2018-08-06T14:00:05.324Z,94.70
2018-08-06T14:02:40.928Z,94.60
2018-08-06T14:05:17.357Z,94.20
2018-08-06T14:07:53.005Z,94.20
2018-08-06T14:10:28.517Z,94.10
2018-08-06T14:13:03.925Z,93.70
2018-08-06T14:15:39.122Z,93.80
2018-08-06T14:18:14.811Z,93.30
2018-08-06T14:20:50.506Z,93.10
2018-08-06T14:23:25.987Z,93.40
2018-08-06T14:26:01.472Z,93.00
2018-08-06T14:28:37.097Z,92.20
2018-08-06T14:31:12.610Z,92.50
2018-08-06T14:33:48.287Z,92.60
2018-08-06T14:36:23.628Z,91.80
2018-08-06T14:38:59.054Z,91.80
2018-08-06T14:41:34.265Z,92.10
2018-08-06T14:44:10.435Z,91.60
2018-08-06T14:46:45.762Z,91.70
2018-08-06T14:49:21.206Z,91.10
2018-08-06T14:51:56.724Z,90.80
2018-08-06T14:54:32.262Z,90.50
2018-08-06T14:57:07.778Z,90.30
2018-08-06T14:59:43.427Z,90.20
2018-08-06T15:07:29.415Z,89.70
2018-08-06T15:10:06.455Z,89.80
2018-08-06T15:12:41.911Z,90.30
2018-08-06T15:15:18.328Z,90.40
2018-08-06T15:17:53.707Z,90.20
2018-08-06T15:20:29.257Z,90.00
2018-08-06T15:23:04.939Z,89.50
2018-08-06T15:25:40.554Z,89.50
2018-08-06T15:28:16.020Z,90.00
2018-08-06T15:30:51.759Z,89.80
2018-08-06T15:33:27.062Z,89.30
2018-08-06T15:36:02.661Z,88.10
2018-08-06T15:38:38.006Z,88.80
2018-08-06T15:41:13.542Z,88.00
2018-08-06T15:43:48.906Z,87.60
2018-08-06T15:46:24.536Z,87.00
2018-08-06T15:48:59.832Z,87.10
2018-08-06T15:51:35.423Z,88.00
2018-08-06T15:54:11.053Z,87.10
2018-08-06T15:56:46.629Z,87.20
2018-08-06T15:59:22.100Z,86.90
2018-08-06T16:02:05.538Z,85.90
2018-08-06T16:04:40.814Z,86.30
2018-08-06T16:07:16.233Z,86.80
2018-08-06T16:09:51.520Z,87.60
2018-08-06T16:12:27.324Z,87.40
2018-08-06T16:15:02.492Z,87.10
2018-08-06T16:17:38.376Z,86.40
2018-08-06T16:20:14.928Z,87.10
2018-08-06T16:22:50.705Z,85.80
2018-08-06T16:25:26.149Z,85.50
2018-08-06T16:28:02.710Z,85.70
2018-08-06T16:33:13.396Z,86.00
2018-08-06T16:35:48.706Z,86.40
2018-08-06T16:38:24.110Z,86.50
2018-08-06T16:40:59.625Z,86.90
2018-08-06T16:46:10.213Z,86.20
2018-08-06T16:48:45.777Z,86.70
2018-08-06T16:51:21.196Z,86.70
2018-08-06T16:53:56.761Z,87.10
2018-08-06T16:56:32.081Z,87.00
2018-08-06T16:59:07.893Z,87.30
2018-08-06T17:01:43.573Z,88.40
2018-08-06T17:06:54.684Z,87.10
2018-08-06T17:09:30.082Z,87.90
2018-08-06T17:12:05.578Z,86.70
2018-08-06T17:14:40.996Z,88.10
2018-08-06T17:17:16.488Z,87.40
2018-08-06T17:19:52.145Z,87.30
2018-08-06T17:22:27.735Z,87.70
2018-08-06T17:25:03.339Z,88.40
2018-08-06T17:27:38.973Z,88.60
2018-08-06T17:30:15.683Z,88.30
2018-08-06T17:32:51.064Z,90.00
2018-08-06T17:35:26.424Z,89.10
2018-08-06T17:38:02.048Z,88.70
2018-08-06T17:40:37.636Z,88.70
2018-08-06T17:43:13.189Z,89.40
2018-08-06T17:45:48.789Z,89.30
2018-08-06T17:48:24.056Z,90.00
2018-08-06T17:50:59.634Z,89.60
2018-08-06T17:53:35.029Z,90.20
2018-08-06T17:56:10.620Z,89.70
2018-08-06T17:58:45.965Z,90.20
2018-08-06T18:01:21.394Z,90.40
2018-08-06T18:03:57.049Z,90.30
2018-08-06T18:06:32.599Z,90.30
2018-08-06T18:09:11.418Z,90.20
2018-08-06T18:11:46.701Z,90.50
2018-08-06T18:14:22.144Z,91.00
2018-08-06T18:19:32.821Z,91.50
2018-08-06T18:24:44.128Z,92.30
2018-08-06T18:27:19.710Z,92.40
2018-08-06T18:29:55.319Z,92.50
2018-08-06T18:32:31.068Z,93.00
2018-08-06T18:35:07.800Z,93.10
2018-08-06T18:37:43.795Z,93.30
2018-08-06T18:40:20.369Z,93.50
2018-08-06T18:42:55.871Z,94.10
2018-08-06T18:45:31.229Z,95.60
2018-08-06T18:48:07.230Z,99.10
2018-08-06T18:50:42.639Z,98.50
2018-08-06T18:53:18.032Z,95.50
2018-08-06T18:55:53.352Z,95.60
2018-08-06T18:58:28.722Z,95.70
2018-08-06T19:01:04.305Z,95.90
2018-08-06T19:03:39.968Z,96.10
2018-08-06T19:06:15.895Z,97.30
2018-08-06T19:08:57.840Z,96.80
2018-08-06T19:11:33.293Z,96.40
2018-08-06T19:14:14.029Z,96.90
2018-08-06T19:16:50.728Z,97.20
2018-08-06T19:19:27.688Z,97.40
2018-08-06T19:22:04.226Z,98.00
2018-08-06T19:24:45.005Z,97.50
2018-08-06T19:27:20.288Z,98.60
2018-08-06T19:29:55.803Z,97.90
2018-08-06T19:32:31.297Z,98.20
2018-08-06T19:35:07.241Z,97.70
2018-08-06T19:37:45.425Z,98.00
2018-08-06T19:40:20.903Z,97.90
2018-08-06T19:43:01.594Z,98.00
2018-08-06T19:48:12.239Z,98.60
2018-08-06T19:50:47.837Z,99.00
2018-08-06T19:53:23.229Z,98.70
2018-08-06T19:56:04.157Z,99.10
2018-08-06T20:01:14.825Z,99.00
2018-08-06T20:03:50.285Z,99.00
2018-08-06T20:06:25.804Z,99.00
2018-08-06T20:09:01.226Z,99.60
2018-08-06T20:11:36.791Z,99.20
2018-08-06T20:14:12.313Z,99.60
2018-08-06T20:16:47.682Z,99.60
2018-08-06T20:19:23.070Z,99.90
2018-08-06T20:21:58.890Z,99.90
2018-08-06T20:24:34.366Z,99.90
2018-08-06T20:27:09.813Z,99.90
2018-08-06T20:29:45.210Z,99.90
2018-08-06T20:32:20.681Z,99.90
2018-08-06T20:34:55.980Z,99.90
2018-08-06T20:37:31.709Z,99.90
2018-08-06T20:45:20.424Z,99.90
2018-08-06T20:47:55.932Z,99.90
2018-08-06T20:50:31.439Z,99.90
2018-08-06T20:53:06.992Z,99.90
2018-08-06T20:55:42.593Z,99.90
2018-08-06T20:58:18.306Z,99.90
2018-08-06T21:00:53.690Z,99.90
2018-08-06T21:03:29.370Z,99.90
2018-08-06T21:08:39.952Z,99.90
2018-08-06T21:11:15.425Z,99.90
2018-08-06T21:13:51.233Z,99.90
2018-08-06T21:16:26.605Z,99.90
2018-08-06T21:19:02.349Z,99.90
2018-08-06T21:21:38.110Z,99.90
2018-08-06T21:24:13.750Z,99.90
2018-08-06T21:26:49.079Z,99.90
2018-08-06T21:32:00.670Z,99.90
2018-08-06T21:34:36.149Z,99.90
2018-08-06T21:37:11.421Z,99.90
2018-08-06T21:39:47.204Z,99.90
2018-08-06T21:42:22.668Z,99.90
2018-08-06T21:44:58.351Z,99.90
2018-08-06T21:47:33.912Z,99.90
2018-08-06T21:50:10.524Z,99.90
2018-08-06T21:52:46.111Z,99.90
2018-08-06T21:55:21.601Z,99.90
2018-08-06T21:57:57.196Z,99.90
2018-08-06T22:00:39.593Z,99.90
2018-08-06T22:03:16.994Z,99.90
2018-08-06T22:05:52.646Z,99.90
2018-08-06T22:08:28.019Z,99.90
2018-08-06T22:11:03.951Z,99.90
2018-08-06T22:13:39.453Z,99.90
2018-08-06T22:16:15.054Z,99.90
2018-08-06T22:21:26.441Z,99.90
2018-08-06T22:24:02.000Z,99.90
2018-08-06T22:26:44.300Z,99.90
2018-08-06T22:29:19.646Z,99.90
2018-08-06T22:31:55.293Z,99.90
2018-08-06T22:34:30.781Z,99.90
2018-08-06T22:37:06.180Z,99.90
2018-08-06T22:39:41.389Z,99.90
2018-08-06T22:42:17.076Z,99.90
2018-08-06T22:44:52.560Z,99.90
2018-08-06T22:47:28.178Z,99.90
2018-08-06T22:50:03.502Z,99.90
2018-08-06T22:52:39.360Z,99.90
2018-08-06T22:55:14.585Z,99.90
2018-08-06T22:57:50.054Z,99.90
2018-08-06T23:00:25.510Z,99.90
2018-08-06T23:03:01.253Z,99.90
2018-08-06T23:05:36.662Z,99.90
2018-08-06T23:08:12.357Z,99.90
2018-08-06T23:10:47.657Z,99.90
2018-08-06T23:13:23.129Z,99.90
2018-08-06T23:15:58.608Z,99.90
2018-08-06T23:18:34.432Z,99.90
2018-08-06T23:21:09.844Z,99.90
2018-08-06T23:23:45.512Z,99.90
2018-08-06T23:26:20.928Z,99.90
2018-08-06T23:28:56.486Z,99.90
2018-08-06T23:34:07.620Z,99.90
2018-08-06T23:36:42.996Z,99.90
2018-08-06T23:39:18.531Z,99.90
2018-08-06T23:41:53.875Z,99.90
2018-08-06T23:44:29.500Z,99.90
2018-08-06T23:47:04.807Z,99.90
2018-08-06T23:49:40.488Z,99.90
2018-08-06T23:52:15.769Z,99.90
2018-08-06T23:54:51.480Z,99.90
2018-08-06T23:57:26.916Z,99.90
